Time;durP1;ratioP1;P1;durP2;ratioP2;P2;SDS_P1;SDS_P2;PMS_P1;PMS_P2;Temp;Humidity;BMP_temperature;BMP_pressure;BME280_temperature;BME280_humidity;BME280_pressure;Samples;Min_cycle;Max_cycle;Signal;HPM_P1;HPM_P2
2021/07/05 00:00:45;;;;;;;14.33;7.57;;;;;;;16.24;100.00;100707.14;1971305;72;33466;-74
2021/07/05 00:06:09;;;;;;;15.17;7.30;;;;;;;16.29;100.00;100703.61;1970961;73;33295;-75
2021/07/05 00:11:34;;;;;;;15.63;7.43;;;;;;;16.26;100.00;100699.21;1971205;72;32912;-75
2021/07/05 00:16:59;;;;;;;12.73;7.53;;;;;;;16.26;100.00;100714.05;1970953;72;33420;-74
2021/07/05 00:22:24;;;;;;;12.87;6.67;;;;;;;16.18;100.00;100710.66;1971362;71;33596;-75
2021/07/05 00:27:48;;;;;;;14.07;7.27;;;;;;;16.18;100.00;100703.66;1971246;72;32932;-75
2021/07/05 00:33:14;;;;;;;14.20;6.70;;;;;;;16.17;100.00;100696.99;1938405;74;32962;-77
2021/07/05 00:38:38;;;;;;;11.97;6.63;;;;;;;16.10;100.00;100689.05;1971432;72;34181;-75
2021/07/05 00:44:03;;;;;;;11.77;6.90;;;;;;;16.12;100.00;100692.94;1971017;73;33393;-73
2021/07/05 00:49:28;;;;;;;15.53;7.17;;;;;;;16.09;100.00;100695.00;1970945;72;32939;-77
2021/07/05 00:54:52;;;;;;;13.17;7.27;;;;;;;15.92;100.00;100688.75;1971136;72;32900;-77
2021/07/05 01:00:19;;;;;;;16.37;7.27;;;;;;;16.02;100.00;100693.23;1971034;72;33035;-76
2021/07/05 01:05:44;;;;;;;16.33;7.20;;;;;;;16.04;100.00;100689.55;1971156;72;32953;-74
2021/07/05 01:11:09;;;;;;;14.07;6.77;;;;;;;16.01;100.00;100689.59;1971078;72;33118;-74
2021/07/05 01:16:33;;;;;;;13.10;7.17;;;;;;;15.95;100.00;100679.72;1971190;73;33529;-74
2021/07/05 01:22:18;;;;;;;13.70;7.30;;;;;;;15.99;100.00;100680.71;1910688;74;31466;-77
2021/07/05 01:27:42;;;;;;;15.00;7.00;;;;;;;15.99;100.00;100673.70;1971192;73;31081;-75
2021/07/05 01:33:10;;;;;;;16.37;7.10;;;;;;;16.03;100.00;100671.08;1970933;72;32927;-74
2021/07/05 01:38:35;;;;;;;12.57;7.37;;;;;;;15.99;100.00;100679.31;1971297;72;31529;-74
2021/07/05 01:44:00;;;;;;;12.50;6.73;;;;;;;15.90;100.00;100676.48;1971128;73;33139;-77
2021/07/05 01:49:26;;;;;;;15.07;6.90;;;;;;;15.94;100.00;100662.65;1971297;73;32894;-76
2021/07/05 01:54:51;;;;;;;13.37;7.00;;;;;;;15.89;100.00;100673.42;1971075;72;33102;-77
2021/07/05 02:00:18;;;;;;;13.17;6.77;;;;;;;15.95;100.00;100662.91;1971307;73;32948;-75
2021/07/05 02:05:43;;;;;;;15.83;6.73;;;;;;;15.80;100.00;100656.34;1970841;72;32872;-75
2021/07/05 02:11:08;;;;;;;16.23;7.80;;;;;;;15.89;100.00;100660.82;1971196;73;33502;-75
2021/07/05 02:16:40;;;;;;;13.17;6.70;;;;;;;15.89;100.00;100659.42;1971133;73;32974;-77
2021/07/05 02:22:06;;;;;;;11.57;7.23;;;;;;;15.91;100.00;100653.50;1946385;73;33478;-77
2021/07/05 02:27:30;;;;;;;12.50;6.97;;;;;;;15.91;100.00;100657.70;1971318;72;33504;-75
2021/07/05 02:32:55;;;;;;;15.13;6.50;;;;;;;15.88;100.00;100654.96;1971250;73;33505;-77
2021/07/05 02:38:22;;;;;;;12.30;6.60;;;;;;;15.91;100.00;100643.13;1971177;72;33527;-77
2021/07/05 02:43:48;;;;;;;17.67;6.93;;;;;;;15.88;100.00;100650.77;1971325;72;33387;-77
2021/07/05 02:49:12;;;;;;;17.57;7.33;;;;;;;15.85;100.00;100647.79;1970934;72;32958;-77
2021/07/05 02:54:36;;;;;;;13.83;6.57;;;;;;;15.84;100.00;100645.56;1971363;73;32996;-77
2021/07/05 03:00:02;;;;;;;13.80;6.60;;;;;;;15.76;100.00;100651.14;1971069;72;33547;-77
2021/07/05 03:05:28;;;;;;;13.20;7.07;;;;;;;15.77;100.00;100655.59;1971744;72;32968;-76
2021/07/05 03:10:54;;;;;;;16.00;7.60;;;;;;;15.79;100.00;100644.30;1971795;72;32981;-76
2021/07/05 03:16:18;;;;;;;14.40;7.57;;;;;;;15.74;100.00;100644.48;1971109;72;33584;-77
2021/07/05 03:21:42;;;;;;;12.70;7.70;;;;;;;15.76;100.00;100658.14;1950873;73;33458;-77
2021/07/05 03:27:13;;;;;;;13.50;7.00;;;;;;;15.70;100.00;100665.05;1971200;72;32993;-77
2021/07/05 03:32:39;;;;;;;13.37;7.27;;;;;;;15.66;100.00;100662.66;1971063;73;33046;-74
2021/07/05 03:38:07;;;;;;;13.17;7.50;;;;;;;15.67;100.00;100663.71;1970964;72;32909;-75
2021/07/05 03:43:32;;;;;;;16.57;7.60;;;;;;;15.61;100.00;100664.19;1971083;72;32923;-75
2021/07/05 03:49:16;;;;;;;14.00;7.70;;;;;;;15.46;100.00;100664.00;1947491;74;31034;-77
2021/07/05 03:54:39;;;;;;;13.87;7.17;;;;;;;15.48;100.00;100665.34;1971154;72;33508;-75
2021/07/05 04:00:10;;;;;;;15.30;7.87;;;;;;;15.53;100.00;100663.02;1971004;72;32884;-74
2021/07/05 04:05:35;;;;;;;15.33;7.53;;;;;;;15.56;100.00;100679.73;1971064;72;33017;-75
2021/07/05 04:11:00;;;;;;;16.17;8.27;;;;;;;15.51;100.00;100686.86;1971023;73;32887;-75
2021/07/05 04:16:26;;;;;;;13.70;8.33;;;;;;;15.47;100.00;100686.08;1971023;73;32896;-74
2021/07/05 04:21:51;;;;;;;17.00;8.90;;;;;;;15.41;100.00;100680.93;1971087;72;32962;-77
2021/07/05 04:27:16;;;;;;;17.37;8.67;;;;;;;15.43;100.00;100671.08;1970969;73;32933;-75
2021/07/05 04:32:41;;;;;;;14.60;7.90;;;;;;;15.39;100.00;100672.88;1971070;72;33440;-77
2021/07/05 04:38:07;;;;;;;15.80;7.70;;;;;;;15.50;100.00;100677.63;1971146;73;32880;-75
2021/07/05 04:43:32;;;;;;;15.03;8.13;;;;;;;15.48;100.00;100670.95;1971156;72;33472;-75
2021/07/05 04:48:57;;;;;;;19.27;8.63;;;;;;;15.42;100.00;100676.42;1971301;72;32885;-77
2021/07/05 04:54:21;;;;;;;15.70;8.00;;;;;;;15.32;100.00;100676.69;1971251;72;33521;-77
2021/07/05 04:59:45;;;;;;;17.43;8.57;;;;;;;15.28;100.00;100685.47;1971082;73;32955;-74
2021/07/05 05:05:11;;;;;;;14.93;8.37;;;;;;;15.29;100.00;100692.73;1971020;72;33021;-74
2021/07/05 05:10:36;;;;;;;12.67;8.47;;;;;;;15.27;100.00;100688.61;1971258;72;32880;-77
2021/07/05 05:16:01;;;;;;;13.30;7.63;;;;;;;15.23;100.00;100681.41;1971271;72;33470;-75
2021/07/05 05:21:27;;;;;;;15.83;8.30;;;;;;;15.23;100.00;100691.80;1953786;72;32945;-75
2021/07/05 05:26:51;;;;;;;12.67;7.40;;;;;;;15.27;100.00;100688.05;1971237;73;33421;-75
2021/07/05 05:32:16;;;;;;;16.20;8.00;;;;;;;15.22;100.00;100683.14;1971157;72;33014;-77
2021/07/05 05:37:40;;;;;;;11.07;8.30;;;;;;;15.19;100.00;100682.39;1970914;72;32971;-74
2021/07/05 05:43:08;;;;;;;15.90;8.03;;;;;;;15.31;100.00;100674.23;1971316;72;33372;-77
2021/07/05 05:48:33;;;;;;;11.17;6.47;;;;;;;15.28;100.00;100667.28;1970855;73;32949;-77
2021/07/05 05:53:57;;;;;;;13.10;7.17;;;;;;;15.30;100.00;100673.97;1971139;72;32994;-74
2021/07/05 05:59:22;;;;;;;11.27;6.93;;;;;;;15.43;100.00;100675.85;1971041;73;32963;-77
2021/07/05 06:04:46;;;;;;;8.60;6.77;;;;;;;15.50;100.00;100683.23;1970853;73;32882;-75
2021/07/05 06:10:12;;;;;;;10.77;6.43;;;;;;;15.65;100.00;100677.80;1970948;72;33285;-78
2021/07/05 06:15:37;;;;;;;12.07;5.90;;;;;;;15.71;100.00;100689.08;1970833;73;33500;-75
2021/07/05 06:21:01;;;;;;;10.77;6.07;;;;;;;15.82;100.00;100677.29;1958583;72;33024;-74
2021/07/05 06:26:25;;;;;;;10.17;5.70;;;;;;;15.78;100.00;100675.45;1970863;72;32958;-75
2021/07/05 06:31:49;;;;;;;11.37;6.27;;;;;;;15.80;100.00;100675.94;1971008;72;32862;-74
2021/07/05 06:37:14;;;;;;;10.23;5.40;;;;;;;15.92;100.00;100669.97;1970706;73;33372;-77
2021/07/05 06:42:40;;;;;;;8.73;5.73;;;;;;;15.99;100.00;100677.08;1971036;73;33413;-74
2021/07/05 06:48:06;;;;;;;12.67;6.00;;;;;;;16.07;100.00;100674.30;1970900;72;30998;-77
2021/07/05 06:53:30;;;;;;;11.40;5.57;;;;;;;16.12;100.00;100667.15;1971130;72;30977;-72
2021/07/05 06:58:55;;;;;;;9.00;5.40;;;;;;;16.08;100.00;100673.16;1971072;73;33439;-73
2021/07/05 07:04:20;;;;;;;10.23;5.60;;;;;;;16.14;100.00;100675.20;1970782;73;33486;-76
2021/07/05 07:09:45;;;;;;;9.13;5.27;;;;;;;16.29;100.00;100671.95;1971855;73;32958;-76
2021/07/05 07:15:12;;;;;;;8.40;5.20;;;;;;;16.34;100.00;100667.59;1972099;72;33429;-77
2021/07/05 07:20:37;;;;;;;7.63;5.27;;;;;;;16.57;100.00;100685.93;1967683;71;31055;-80
2021/07/05 07:26:01;;;;;;;7.20;5.50;;;;;;;17.05;100.00;100684.34;1970997;73;34280;-75
2021/07/05 07:31:26;;;;;;;8.30;5.07;;;;;;;17.21;100.00;100676.21;1971070;73;31429;-75
2021/07/05 07:36:50;;;;;;;6.93;4.83;;;;;;;17.03;100.00;100676.02;1971335;72;31443;-76
2021/07/05 07:42:15;;;;;;;6.83;4.43;;;;;;;17.16;100.00;100687.03;1971154;73;33371;-79
2021/07/05 07:47:40;;;;;;;8.33;4.27;;;;;;;17.49;100.00;100678.88;1972033;73;31007;-76
2021/07/05 07:53:07;;;;;;;9.13;4.50;;;;;;;17.66;100.00;100678.84;1970885;72;32997;-73
2021/07/05 07:58:31;;;;;;;9.97;5.10;;;;;;;17.93;100.00;100670.50;1971808;73;31020;-75
2021/07/05 08:03:59;;;;;;;7.67;4.30;;;;;;;17.95;100.00;100670.17;1971772;73;31032;-75
2021/07/05 08:09:24;;;;;;;7.37;4.30;;;;;;;17.57;100.00;100655.55;1971954;72;30938;-77
2021/07/05 08:14:48;;;;;;;10.07;4.53;;;;;;;17.90;100.00;100664.74;1971078;73;31541;-79
2021/07/05 08:20:20;;;;;;;6.60;4.47;;;;;;;17.88;100.00;100656.67;1972120;72;31008;-75
2021/07/05 08:25:43;;;;;;;6.07;4.33;;;;;;;18.58;100.00;100648.83;1971130;72;31514;-82
2021/07/05 08:31:07;;;;;;;7.27;4.07;;;;;;;18.63;100.00;100627.53;1970870;73;30973;-81
2021/07/05 08:36:32;;;;;;;7.07;4.30;;;;;;;18.59;100.00;100624.34;1971853;72;31033;-76
2021/07/05 08:41:57;;;;;;;7.30;4.27;;;;;;;18.70;100.00;100618.52;1971326;72;31050;-74
2021/07/05 08:47:24;;;;;;;8.07;4.10;;;;;;;19.09;100.00;100617.13;1970718;73;31052;-74
2021/07/05 08:52:48;;;;;;;5.97;3.70;;;;;;;19.49;100.00;100613.95;1970939;72;30979;-75
2021/07/05 08:58:14;;;;;;;4.07;3.67;;;;;;;19.18;100.00;100600.97;1972485;72;31001;-76
2021/07/05 09:03:40;;;;;;;4.37;3.20;;;;;;;19.02;100.00;100611.26;1970862;73;30980;-77
2021/07/05 09:09:13;;;;;;;5.97;3.53;;;;;;;19.20;100.00;100610.48;1971262;72;31617;-76
2021/07/05 09:14:39;;;;;;;4.60;3.07;;;;;;;20.21;100.00;100616.49;1970942;72;30993;-75
2021/07/05 09:20:24;;;;;;;5.20;3.17;;;;;;;20.30;100.00;100593.82;1937106;73;31123;-78
2021/07/05 09:26:07;;;;;;;9.70;2.73;;;;;;;20.37;100.00;100599.67;1970977;72;30974;-75
2021/07/05 09:31:41;;;;;;;5.07;2.77;;;;;;;20.42;100.00;100585.31;1971080;73;30985;-77
2021/07/05 09:37:21;;;;;;;4.57;2.80;;;;;;;20.83;100.00;100586.92;1970988;72;30939;-78
2021/07/05 09:43:24;;;;;;;4.27;2.60;;;;;;;20.52;100.00;100582.00;1971230;72;31491;-77
2021/07/05 09:48:50;;;;;;;5.23;2.40;;;;;;;20.63;100.00;100574.65;1971265;72;31145;-79
2021/07/05 09:54:20;;;;;;;2.90;2.60;;;;;;;20.69;100.00;100565.34;1971761;72;31020;-76
2021/07/05 09:59:51;;;;;;;4.17;2.50;;;;;;;20.72;100.00;100569.67;1970952;73;31004;-73
2021/07/05 10:05:16;;;;;;;5.00;3.00;;;;;;;20.75;100.00;100579.44;1970945;73;31018;-72
2021/07/05 10:11:04;;;;;;;4.17;2.30;;;;;;;20.83;100.00;100578.45;1971090;72;30983;-72
2021/07/05 10:16:28;;;;;;;5.37;2.50;;;;;;;20.69;100.00;100577.45;1971120;72;31420;-73
2021/07/05 10:21:53;;;;;;;9.37;2.37;;;;;;;20.46;100.00;100583.41;1961402;71;30950;-74
2021/07/05 10:27:17;;;;;;;3.50;2.10;;;;;;;20.49;100.00;100574.26;1970920;73;30933;-75
2021/07/05 10:32:44;;;;;;;3.40;2.17;;;;;;;20.74;100.00;100550.39;1971454;72;31570;-72
2021/07/05 10:38:17;;;;;;;3.37;2.03;;;;;;;20.89;100.00;100551.58;1971095;72;32208;-72
2021/07/05 10:43:52;;;;;;;2.42;2.10;;;;;;;21.21;100.00;100539.17;1971290;73;31461;-75
2021/07/05 10:49:47;;;;;;;5.03;2.30;;;;;;;21.26;100.00;100536.08;1970979;72;30920;-75
2021/07/05 10:55:28;;;;;;;3.70;2.07;;;;;;;21.02;100.00;100547.50;1971287;73;30934;-72
2021/07/05 11:00:54;;;;;;;2.77;2.37;;;;;;;21.04;100.00;100547.15;1971087;72;31296;-74
2021/07/05 11:06:43;;;;;;;3.63;2.10;;;;;;;21.08;100.00;100552.30;1971196;72;31055;-74
2021/07/05 11:12:16;;;;;;;2.37;1.90;;;;;;;21.10;100.00;100545.67;1970938;73;30931;-73
2021/07/05 11:17:46;;;;;;;2.40;2.20;;;;;;;21.22;100.00;100542.83;1971184;72;30976;-72
2021/07/05 11:23:09;;;;;;;2.63;2.30;;;;;;;21.26;100.00;100546.55;1970985;72;30956;-74
2021/07/05 11:28:33;;;;;;;5.10;2.43;;;;;;;21.12;100.00;100539.94;1971273;73;31462;-74
2021/07/05 11:34:27;;;;;;;2.27;2.00;;;;;;;21.29;100.00;100538.17;1971069;73;31540;-76
2021/07/05 11:40:43;;;;;;;5.03;2.50;;;;;;;21.33;100.00;100524.13;1971307;72;31044;-74
2021/07/05 11:46:09;;;;;;;4.37;2.60;;;;;;;21.29;100.00;100510.50;1971185;73;30933;-75
2021/07/05 11:51:57;;;;;;;2.30;2.03;;;;;;;21.40;100.00;100516.41;1971051;73;30919;-74
2021/07/05 11:57:25;;;;;;;3.87;1.90;;;;;;;21.52;100.00;100518.53;1971163;72;31436;-74
2021/07/05 12:03:06;;;;;;;4.43;1.90;;;;;;;21.75;100.00;100513.84;1970941;72;31023;-72
2021/07/05 12:08:31;;;;;;;2.95;2.30;;;;;;;21.72;100.00;100508.94;1971235;72;31068;-76
2021/07/05 12:14:09;;;;;;;2.97;2.20;;;;;;;21.56;100.00;100509.57;1971018;72;30978;-76
2021/07/05 12:19:41;;;;;;;3.27;1.90;;;;;;;21.45;100.00;100500.00;1971239;72;31098;-77
2021/07/05 12:25:10;;;;;;;3.60;2.08;;;;;;;21.57;100.00;100491.99;1971316;72;31501;-76
2021/07/05 12:30:34;;;;;;;2.27;1.90;;;;;;;21.72;100.00;100491.97;1972073;73;31528;-75
2021/07/05 12:36:01;;;;;;;4.08;2.47;;;;;;;21.89;100.00;100489.91;1972102;73;31069;-76
2021/07/05 12:41:30;;;;;;;2.40;1.97;;;;;;;21.75;100.00;100480.50;1971131;73;31598;-72
2021/07/05 12:47:07;;;;;;;3.17;2.10;;;;;;;21.90;100.00;100480.24;1972708;72;31021;-75
2021/07/05 12:52:31;;;;;;;3.83;2.45;;;;;;;21.68;100.00;100478.94;1954958;72;29282;-80
2021/07/05 12:58:11;;;;;;;2.83;1.98;;;;;;;21.77;100.00;100471.90;1971198;72;31052;-79
2021/07/05 13:03:54;;;;;;;2.77;2.40;;;;;;;21.99;100.00;100461.88;1971411;72;30951;-74
2021/07/05 13:09:21;;;;;;;3.90;2.12;;;;;;;22.12;100.00;100460.54;1971270;73;31007;-74
2021/07/05 13:14:47;;;;;;;2.75;2.10;;;;;;;22.20;100.00;100451.63;1971268;73;31469;-72
2021/07/05 13:20:17;;;;;;;2.70;2.03;;;;;;;22.35;100.00;100456.95;1967480;72;30969;-74
2021/07/05 13:25:57;;;;;;;2.60;2.00;;;;;;;22.28;100.00;100453.41;1970720;73;31021;-77
2021/07/05 13:31:36;;;;;;;2.50;2.22;;;;;;;22.11;100.00;100455.27;1971234;73;30982;-75
2021/07/05 13:37:04;;;;;;;3.42;2.00;;;;;;;22.33;100.00;100453.10;1971170;73;31524;-73
2021/07/05 13:42:38;;;;;;;2.30;2.00;;;;;;;22.17;100.00;100452.34;1971024;73;30926;-73
2021/07/05 13:48:11;;;;;;;3.65;2.42;;;;;;;22.21;100.00;100439.91;1972121;72;31378;-78
2021/07/05 13:53:40;;;;;;;2.52;1.98;;;;;;;21.93;100.00;100442.76;1972031;72;31167;-78
2021/07/05 13:59:07;;;;;;;2.73;2.23;;;;;;;21.94;100.00;100441.58;1971114;72;31551;-75
2021/07/05 14:04:32;;;;;;;3.00;2.08;;;;;;;22.01;100.00;100432.64;1970910;73;31623;-75
2021/07/05 14:09:59;;;;;;;3.45;2.27;;;;;;;21.92;100.00;100432.59;1970842;73;30969;-75
2021/07/05 14:15:25;;;;;;;2.90;1.80;;;;;;;21.94;100.00;100435.92;1970772;73;31029;-73
2021/07/05 14:20:50;;;;;;;2.05;1.87;;;;;;;21.97;100.00;100430.92;1967142;71;30948;-71
2021/07/05 14:26:15;;;;;;;1.90;1.62;;;;;;;22.02;100.00;100431.45;1971189;73;31509;-73
2021/07/05 14:31:40;;;;;;;3.85;2.08;;;;;;;21.75;100.00;100434.68;1971294;73;30932;-72
2021/07/05 14:37:05;;;;;;;3.35;2.15;;;;;;;21.78;100.00;100439.58;1971104;72;31021;-75
2021/07/05 14:42:30;;;;;;;3.58;2.42;;;;;;;21.72;100.00;100438.25;1971007;73;30983;-73
2021/07/05 14:47:54;;;;;;;4.50;2.10;;;;;;;21.80;100.00;100434.98;1971334;72;31048;-72
2021/07/05 14:53:20;;;;;;;4.42;2.10;;;;;;;21.59;100.00;100430.27;1971403;72;30976;-75
2021/07/05 14:58:44;;;;;;;6.92;3.27;;;;;;;21.59;100.00;100428.86;1970889;72;31020;-72
2021/07/05 15:04:08;;;;;;;3.42;2.58;;;;;;;21.58;100.00;100428.03;1970824;73;30972;-71
2021/07/05 15:09:33;;;;;;;3.55;2.25;;;;;;;21.61;100.00;100422.23;1970876;73;30977;-75
2021/07/05 15:14:57;;;;;;;3.42;2.62;;;;;;;21.70;100.00;100416.59;1971000;73;31054;-73
2021/07/05 15:20:25;;;;;;;3.72;2.47;;;;;;;21.67;100.00;100409.45;1969207;71;31567;-71
2021/07/05 15:25:49;;;;;;;4.37;2.02;;;;;;;21.43;100.00;100407.72;1970940;72;31008;-72
2021/07/05 15:31:14;;;;;;;4.85;2.30;;;;;;;20.89;100.00;100411.23;1970620;73;31297;-75
2021/07/05 15:36:39;;;;;;;2.47;2.12;;;;;;;21.17;100.00;100397.03;1970936;72;30982;-72
2021/07/05 15:42:05;;;;;;;3.10;2.20;;;;;;;21.14;100.00;100399.74;1970785;73;31469;-71
2021/07/05 15:47:29;;;;;;;3.80;2.55;;;;;;;21.03;100.00;100386.77;1971088;72;30978;-71
2021/07/05 15:52:53;;;;;;;4.15;1.98;;;;;;;20.98;100.00;100386.22;1971009;73;31028;-74
2021/07/05 15:58:19;;;;;;;3.37;1.97;;;;;;;20.71;100.00;100391.61;1971027;72;31493;-74
2021/07/05 16:03:44;;;;;;;3.47;1.80;;;;;;;20.84;100.00;100386.09;1971103;73;31555;-75
2021/07/05 16:09:28;;;;;;;3.27;2.00;;;;;;;20.78;100.00;100392.39;1946549;74;31051;-74
2021/07/05 16:14:53;;;;;;;2.73;1.80;;;;;;;20.68;100.00;100384.47;1970970;72;30907;-71
2021/07/05 16:20:44;;;;;;;3.00;2.07;;;;;;;20.60;100.00;100376.42;1937347;74;31513;-72
2021/07/05 16:26:07;;;;;;;1.63;1.43;;;;;;;20.44;100.00;100379.24;1971205;73;31565;-70
2021/07/05 16:31:51;;;;;;;2.07;1.07;;;;;;;20.46;100.00;100361.94;1946658;73;31019;-73
2021/07/05 16:37:22;;;;;;;2.08;1.40;;;;;;;20.26;100.00;100353.94;1970976;72;31017;-72
2021/07/05 16:42:47;;;;;;;1.60;1.20;;;;;;;20.35;100.00;100336.87;1971044;72;30963;-75
2021/07/05 16:48:14;;;;;;;1.70;1.20;;;;;;;20.22;100.00;100331.05;1971300;72;31006;-76
2021/07/05 16:53:58;;;;;;;1.23;1.00;;;;;;;20.31;100.00;100329.73;1946712;74;31664;-73
2021/07/05 16:59:45;;;;;;;1.33;1.00;;;;;;;20.33;100.00;100322.30;1920492;73;33461;-76
2021/07/05 17:02:19;;;;;;;1.37;1.00;;;;;;;20.27;100.00;100319.50;1898063;73;24699;-73
2021/07/05 17:07:44;;;;;;;2.40;1.20;;;;;;;20.36;100.00;100313.12;1970503;72;31014;-72
2021/07/05 17:13:16;;;;;;;2.07;1.10;;;;;;;20.17;100.00;100313.80;1970608;72;31081;-71
2021/07/05 17:18:40;;;;;;;4.70;1.40;;;;;;;19.92;100.00;100304.69;1970727;73;30913;-72
2021/07/05 17:24:08;;;;;;;1.13;0.60;;;;;;;19.85;100.00;100307.91;1970436;73;30981;-72
2021/07/05 17:29:32;;;;;;;1.97;0.80;;;;;;;19.52;100.00;100305.34;1970804;72;31512;-72
2021/07/05 17:34:56;;;;;;;1.83;0.90;;;;;;;19.51;100.00;100294.66;1970565;73;31065;-72
2021/07/05 17:40:23;;;;;;;2.30;0.83;;;;;;;19.29;100.00;100307.05;1970369;72;31043;-74
2021/07/05 17:45:47;;;;;;;2.83;0.83;;;;;;;19.09;100.00;100294.19;1970715;73;31023;-72
2021/07/05 17:51:12;;;;;;;1.27;1.00;;;;;;;18.91;100.00;100287.80;1970689;72;31021;-74
2021/07/05 17:56:42;;;;;;;1.20;1.00;;;;;;;18.84;100.00;100273.49;1970723;72;31457;-72
2021/07/05 18:02:06;;;;;;;1.90;1.10;;;;;;;18.79;100.00;100284.40;1970770;73;31412;-73
2021/07/05 18:07:31;;;;;;;1.63;1.17;;;;;;;18.58;100.00;100262.05;1970617;73;30912;-73
2021/07/05 18:12:56;;;;;;;1.43;1.20;;;;;;;18.43;100.00;100260.51;1970950;72;30954;-72
2021/07/05 18:18:22;;;;;;;1.13;1.03;;;;;;;18.28;100.00;100254.16;1970990;72;31020;-76
2021/07/05 18:23:47;;;;;;;1.93;1.10;;;;;;;18.34;100.00;100239.54;1944439;74;31065;-73
2021/07/05 18:29:18;;;;;;;3.33;1.73;;;;;;;18.02;100.00;100245.48;1970704;72;31012;-72
2021/07/05 18:34:43;;;;;;;2.43;1.47;;;;;;;17.93;100.00;100243.36;1970900;72;31504;-73
2021/07/05 18:40:10;;;;;;;2.50;1.73;;;;;;;17.74;100.00;100238.32;1971172;72;30965;-73
2021/07/05 18:45:35;;;;;;;2.03;1.70;;;;;;;17.71;100.00;100222.14;1970844;72;33401;-73
2021/07/05 18:50:59;;;;;;;2.53;1.70;;;;;;;17.43;100.00;100225.91;1970561;72;30899;-74
2021/07/05 18:56:24;;;;;;;2.97;1.37;;;;;;;17.38;100.00;100219.09;1970554;72;30971;-73
2021/07/05 19:01:51;;;;;;;1.63;1.53;;;;;;;17.29;100.00;100210.77;1970593;73;31020;-72
2021/07/05 19:07:16;;;;;;;2.37;1.63;;;;;;;17.21;100.00;100190.05;1970532;72;31069;-73
2021/07/05 19:12:40;;;;;;;1.77;1.50;;;;;;;17.01;100.00;100180.27;1970777;73;30921;-72
2021/07/05 19:18:06;;;;;;;3.70;1.70;;;;;;;16.61;100.00;100142.09;1970905;72;33003;-71
2021/07/05 19:23:31;;;;;;;2.00;1.67;;;;;;;16.43;100.00;100176.41;1970612;73;31027;-73
2021/07/05 19:28:55;;;;;;;2.97;2.60;;;;;;;16.53;100.00;100213.04;1970734;73;33152;-72
2021/07/05 19:34:20;;;;;;;2.93;2.23;;;;;;;16.70;100.00;100219.95;1970912;72;33439;-72
2021/07/05 19:39:44;;;;;;;5.03;3.07;;;;;;;16.50;100.00;100214.55;1970432;73;32977;-71
2021/07/05 19:45:10;;;;;;;5.10;2.37;;;;;;;16.53;100.00;100205.45;1970723;72;32923;-72
2021/07/05 19:50:36;;;;;;;3.90;2.67;;;;;;;16.29;100.00;100183.70;1970738;73;32964;-73
2021/07/05 19:56:00;;;;;;;3.70;2.47;;;;;;;16.14;100.00;100163.84;1970643;73;33117;-73
2021/07/05 20:01:24;;;;;;;3.40;2.10;;;;;;;16.03;100.00;100143.81;1970519;73;32894;-71
2021/07/05 20:06:49;;;;;;;3.83;2.13;;;;;;;15.94;100.00;100136.86;1970506;72;31093;-73
2021/07/05 20:12:14;;;;;;;3.90;2.43;;;;;;;16.03;100.00;100115.80;1970602;73;33095;-72
2021/07/05 20:17:38;;;;;;;3.00;2.13;;;;;;;16.01;100.00;100112.50;1970668;72;32974;-73
2021/07/05 20:23:03;;;;;;;2.20;2.00;;;;;;;16.10;100.00;100107.66;1970661;72;31022;-73
2021/07/05 20:28:28;;;;;;;2.47;2.27;;;;;;;15.91;100.00;100102.53;1970552;72;33354;-73
2021/07/05 20:33:52;;;;;;;2.50;2.20;;;;;;;16.01;100.00;100089.27;1970411;72;33023;-74
2021/07/05 20:39:17;;;;;;;3.37;2.43;;;;;;;15.93;100.00;100091.80;1970560;72;33620;-71
2021/07/05 20:44:41;;;;;;;3.33;2.50;;;;;;;15.88;100.00;100082.76;1970851;73;30916;-72
2021/07/05 20:50:08;;;;;;;4.20;2.60;;;;;;;15.93;100.00;100079.19;1970679;73;30932;-72
2021/07/05 20:55:32;;;;;;;3.87;2.63;;;;;;;15.76;100.00;100070.90;1970931;73;33489;-72
2021/07/05 21:00:57;;;;;;;3.03;2.57;;;;;;;15.95;100.00;100062.06;1970735;72;32940;-71
2021/07/05 21:06:21;;;;;;;3.67;2.60;;;;;;;15.98;100.00;100047.94;1970278;72;32873;-75
2021/07/05 21:11:46;;;;;;;3.67;3.00;;;;;;;15.91;100.00;100027.49;1970875;72;31113;-71
2021/07/05 21:17:33;;;;;;;2.83;2.63;;;;;;;16.11;100.00;100018.26;1946436;74;33544;-73
2021/07/05 21:22:58;;;;;;;2.20;2.00;;;;;;;16.05;100.00;100000.58;1970792;72;33403;-72
2021/07/05 21:28:42;;;;;;;2.60;2.27;;;;;;;16.04;100.00;99989.16;1946329;74;33134;-71
2021/07/05 21:34:26;;;;;;;2.73;2.00;;;;;;;15.93;100.00;99971.94;1946429;74;32990;-71
2021/07/05 21:39:51;;;;;;;3.00;2.30;;;;;;;15.93;100.00;99958.75;1971176;72;33421;-72
2021/07/05 21:45:18;;;;;;;2.03;1.80;;;;;;;16.02;100.00;99949.45;1970835;73;32865;-71
2021/07/05 21:50:43;;;;;;;2.47;2.10;;;;;;;16.05;100.00;99939.78;1970771;72;33590;-72
2021/07/05 21:56:07;;;;;;;2.10;1.90;;;;;;;16.04;100.00;99929.77;1970561;73;33063;-73
2021/07/05 22:01:32;;;;;;;5.27;1.80;;;;;;;16.03;100.00;99930.91;1971179;72;33434;-71
2021/07/05 22:06:59;;;;;;;1.63;1.43;;;;;;;15.97;100.00;99923.88;1970917;72;33364;-71
2021/07/05 22:12:25;;;;;;;2.33;1.43;;;;;;;15.99;100.00;99906.73;1970662;72;32919;-72
2021/07/05 22:17:50;;;;;;;2.00;1.40;;;;;;;16.01;100.00;99895.98;1970618;73;33016;-71
2021/07/05 22:23:16;;;;;;;2.00;1.30;;;;;;;16.00;100.00;99871.97;1970969;72;32996;-72
2021/07/05 22:28:41;;;;;;;2.00;1.20;;;;;;;15.96;100.00;99883.62;1970740;72;33787;-72
2021/07/05 22:34:05;;;;;;;1.30;1.00;;;;;;;16.02;100.00;99888.66;1971332;72;32947;-71
2021/07/05 22:39:30;;;;;;;2.60;1.20;;;;;;;16.11;100.00;99882.96;1970650;72;32838;-71
2021/07/05 22:44:54;;;;;;;1.10;0.97;;;;;;;15.98;100.00;99847.09;1970761;72;33108;-71
2021/07/05 22:50:20;;;;;;;1.10;1.00;;;;;;;16.00;100.00;99836.38;1970923;72;32916;-71
2021/07/05 22:55:44;;;;;;;1.10;1.00;;;;;;;15.97;100.00;99811.84;1970730;72;32970;-71
2021/07/05 23:01:08;;;;;;;1.10;0.90;;;;;;;15.87;100.00;99815.09;1970795;72;32932;-71
2021/07/05 23:06:34;;;;;;;1.53;1.23;;;;;;;16.02;100.00;99845.81;1970501;73;32991;-71
2021/07/05 23:12:00;;;;;;;2.67;1.07;;;;;;;15.88;100.00;99794.31;1970541;72;32892;-71
2021/07/05 23:17:25;;;;;;;1.50;1.07;;;;;;;16.00;100.00;99779.54;1970428;72;33005;-72
2021/07/05 23:22:51;;;;;;;2.63;1.00;;;;;;;15.99;100.00;99751.28;1970867;72;32996;-71
2021/07/05 23:28:16;;;;;;;2.07;1.20;;;;;;;16.02;100.00;99739.38;1970754;72;32878;-71
2021/07/05 23:33:40;;;;;;;1.60;0.77;;;;;;;16.04;100.00;99742.66;1970682;72;32963;-71
2021/07/05 23:39:05;;;;;;;1.53;1.13;;;;;;;16.05;100.00;99745.09;1970780;72;33100;-72
2021/07/05 23:44:34;;;;;;;1.33;0.80;;;;;;;16.24;100.00;99731.92;1970969;73;33363;-71
2021/07/05 23:49:58;;;;;;;1.47;0.80;;;;;;;16.13;100.00;99711.95;1971046;73;32901;-72
2021/07/05 23:55:25;;;;;;;1.60;0.73;;;;;;;16.21;100.00;99704.03;1970904;72;33473;-71
